FDX172 KLAX-KSFO
Flight info
| Callsign | FDX172 |
|---|---|
| Flight time | 0h 53m |
| Altitude | 34000 |
| Route | SUMMR2 STOKD DCT SERFR SERFR4 |
| Aircraft | A346/H-VGDW/C |
Departure
| Time | 2026-04-22 01:02 |
|---|---|
| Airport | Los Angeles International Airport (KLAX) |
Arrival
| Time | 2026-04-22 01:56 |
|---|---|
| Airport | San Francisco International Airport (KSFO) |
| Time | Latitude | Longitude | Altitude | Speed | Heading |
|---|---|---|---|---|---|
| 2026-04-22 00:41 | 33.93420 | -118.38774 | 130 ft | 0 kts | 174° |
| 2026-04-22 00:51 | 33.93440 | -118.38777 | 131 ft | 0 kts | 174° |
| 2026-04-22 00:52 | 33.93466 | -118.38780 | 131 ft | 0 kts | 174° |
| 2026-04-22 00:52 | 33.93491 | -118.38783 | 131 ft | 0 kts | 174° |
| 2026-04-22 00:52 | 33.93495 | -118.38784 | 128 ft | 0 kts | 174° |
| 2026-04-22 00:57 | 33.93494 | -118.38784 | 134 ft | 1 kts | 174° |
| 2026-04-22 00:57 | 33.93467 | -118.38787 | 130 ft | 6 kts | 195° |
| 2026-04-22 00:58 | 33.93452 | -118.38817 | 130 ft | 5 kts | 293° |
| 2026-04-22 00:58 | 33.93491 | -118.38844 | 129 ft | 8 kts | 353° |
| 2026-04-22 00:58 | 33.93546 | -118.38812 | 128 ft | 11 kts | 57° |
| 2026-04-22 00:58 | 33.93567 | -118.38713 | 134 ft | 14 kts | 81° |
| 2026-04-22 00:59 | 33.93581 | -118.38593 | 131 ft | 16 kts | 83° |
| 2026-04-22 00:59 | 33.93591 | -118.38498 | 134 ft | 18 kts | 83° |
| 2026-04-22 00:59 | 33.93609 | -118.38332 | 126 ft | 11 kts | 77° |
| 2026-04-22 00:59 | 33.93617 | -118.38307 | 129 ft | 0 kts | 59° |
| 2026-04-22 01:00 | 33.93622 | -118.38298 | 129 ft | 4 kts | 47° |
| 2026-04-22 01:00 | 33.93644 | -118.38284 | 130 ft | 8 kts | 14° |
| 2026-04-22 01:00 | 33.93707 | -118.38286 | 131 ft | 10 kts | 347° |
| 2026-04-22 01:01 | 33.93727 | -118.38361 | 129 ft | 10 kts | 263° |
| 2026-04-22 01:01 | 33.93725 | -118.38390 | 126 ft | 4 kts | 263° |
| 2026-04-22 01:01 | 33.93707 | -118.38566 | 134 ft | 50 kts | 263° |
| 2026-04-22 01:01 | 33.93637 | -118.39240 | 126 ft | 110 kts | 263° |
| 2026-04-22 01:02 | 33.93521 | -118.40368 | 135 ft | 159 kts | 263° |
| 2026-04-22 01:02 | 33.93380 | -118.41805 | 447 ft | 177 kts | 262° |
| 2026-04-22 01:02 | 33.93238 | -118.43263 | 1233 ft | 172 kts | 260° |
| 2026-04-22 01:02 | 33.93076 | -118.44683 | 1914 ft | 171 kts | 262° |
| 2026-04-22 01:03 | 33.92969 | -118.46158 | 2355 ft | 184 kts | 267° |
| 2026-04-22 01:03 | 33.92913 | -118.47769 | 2737 ft | 200 kts | 267° |
| 2026-04-22 01:03 | 33.92859 | -118.49492 | 3078 ft | 218 kts | 266° |
| 2026-04-22 01:03 | 33.92726 | -118.51397 | 3443 ft | 238 kts | 264° |
| 2026-04-22 01:04 | 33.92563 | -118.53442 | 4035 ft | 248 kts | 264° |
| 2026-04-22 01:04 | 33.92389 | -118.55521 | 4889 ft | 250 kts | 264° |
| 2026-04-22 01:04 | 33.92217 | -118.57621 | 5738 ft | 253 kts | 264° |
| 2026-04-22 01:04 | 33.92041 | -118.59746 | 6589 ft | 256 kts | 263° |
| 2026-04-22 01:05 | 33.91866 | -118.61904 | 7420 ft | 259 kts | 264° |
| 2026-04-22 01:05 | 33.91792 | -118.64097 | 8328 ft | 260 kts | 267° |
| 2026-04-22 01:05 | 33.91782 | -118.66279 | 9270 ft | 261 kts | 267° |
| 2026-04-22 01:05 | 33.91775 | -118.68468 | 10199 ft | 261 kts | 267° |
| 2026-04-22 01:06 | 33.91764 | -118.70690 | 10854 ft | 272 kts | 267° |
| 2026-04-22 01:06 | 33.91749 | -118.73047 | 11288 ft | 290 kts | 267° |
| 2026-04-22 01:06 | 33.91736 | -118.75550 | 11699 ft | 308 kts | 267° |
| 2026-04-22 01:06 | 33.91723 | -118.78217 | 11978 ft | 326 kts | 267° |
| 2026-04-22 01:07 | 33.91711 | -118.80981 | 11987 ft | 331 kts | 267° |
| 2026-04-22 01:07 | 33.91726 | -118.83770 | 11989 ft | 333 kts | 269° |
| 2026-04-22 01:07 | 33.91807 | -118.86603 | 12250 ft | 343 kts | 269° |
| 2026-04-22 01:07 | 33.91892 | -118.89439 | 13204 ft | 341 kts | 269° |
| 2026-04-22 01:08 | 33.91979 | -118.92279 | 14232 ft | 339 kts | 269° |
| 2026-04-22 01:08 | 33.92062 | -118.95129 | 15019 ft | 341 kts | 269° |
| 2026-04-22 01:08 | 33.92160 | -118.98001 | 15781 ft | 345 kts | 272° |
| 2026-04-22 01:08 | 33.92591 | -119.00895 | 16379 ft | 358 kts | 281° |
| 2026-04-22 01:09 | 33.93482 | -119.03752 | 16944 ft | 370 kts | 290° |
| 2026-04-22 01:09 | 33.94768 | -119.06478 | 17688 ft | 376 kts | 295° |
| 2026-04-22 01:09 | 33.96145 | -119.09181 | 18459 ft | 379 kts | 296° |
| 2026-04-22 01:09 | 33.97539 | -119.11888 | 19143 ft | 380 kts | 296° |
| 2026-04-22 01:10 | 33.98943 | -119.14590 | 19947 ft | 379 kts | 297° |
| 2026-04-22 01:10 | 34.00539 | -119.17153 | 20655 ft | 386 kts | 303° |
| 2026-04-22 01:10 | 34.02424 | -119.19521 | 21295 ft | 395 kts | 310° |
| 2026-04-22 01:10 | 34.04574 | -119.21642 | 21939 ft | 403 kts | 315° |
| 2026-04-22 01:11 | 34.06860 | -119.23646 | 22580 ft | 407 kts | 316° |
| 2026-04-22 01:11 | 34.09151 | -119.25617 | 23182 ft | 411 kts | 317° |
| 2026-04-22 01:11 | 34.11489 | -119.27622 | 23804 ft | 413 kts | 317° |
| 2026-04-22 01:11 | 34.13832 | -119.29629 | 24458 ft | 412 kts | 316° |
| 2026-04-22 01:12 | 34.16169 | -119.31635 | 25045 ft | 413 kts | 316° |
| 2026-04-22 01:12 | 34.18533 | -119.33671 | 25553 ft | 416 kts | 316° |
| 2026-04-22 01:12 | 34.20895 | -119.35709 | 26060 ft | 419 kts | 316° |
| 2026-04-22 01:12 | 34.23274 | -119.37764 | 26559 ft | 421 kts | 316° |
| 2026-04-22 01:13 | 34.25667 | -119.39832 | 27046 ft | 424 kts | 316° |
| 2026-04-22 01:13 | 34.28076 | -119.41916 | 27536 ft | 427 kts | 316° |
| 2026-04-22 01:13 | 34.30500 | -119.44015 | 28015 ft | 430 kts | 316° |
| 2026-04-22 01:13 | 34.32945 | -119.46133 | 28479 ft | 433 kts | 316° |
| 2026-04-22 01:14 | 34.35403 | -119.48262 | 28999 ft | 434 kts | 315° |
| 2026-04-22 01:14 | 34.37852 | -119.50400 | 29639 ft | 431 kts | 314° |
| 2026-04-22 01:14 | 34.40200 | -119.52629 | 30333 ft | 426 kts | 311° |
| 2026-04-22 01:14 | 34.42436 | -119.54980 | 30919 ft | 420 kts | 309° |
| 2026-04-22 01:15 | 34.44512 | -119.57390 | 31428 ft | 416 kts | 307° |
| 2026-04-22 01:15 | 34.46554 | -119.59878 | 31928 ft | 416 kts | 307° |
| 2026-04-22 01:15 | 34.48581 | -119.62368 | 32485 ft | 414 kts | 307° |
| 2026-04-22 01:15 | 34.50608 | -119.64863 | 33040 ft | 414 kts | 306° |
| 2026-04-22 01:16 | 34.52638 | -119.67364 | 33395 ft | 416 kts | 306° |
| 2026-04-22 01:16 | 34.54675 | -119.69878 | 33754 ft | 418 kts | 307° |
| 2026-04-22 01:16 | 34.56717 | -119.72400 | 34084 ft | 420 kts | 307° |
| 2026-04-22 01:16 | 34.58771 | -119.74936 | 34076 ft | 421 kts | 307° |
| 2026-04-22 01:17 | 34.62877 | -119.80007 | 34100 ft | 420 kts | 307° |
| 2026-04-22 01:17 | 34.66966 | -119.85065 | 34097 ft | 420 kts | 307° |
| 2026-04-22 01:18 | 34.71074 | -119.90155 | 34102 ft | 420 kts | 307° |
| 2026-04-22 01:18 | 34.75165 | -119.95231 | 34105 ft | 419 kts | 307° |
| 2026-04-22 01:19 | 34.79239 | -120.00295 | 34097 ft | 418 kts | 307° |
| 2026-04-22 01:19 | 34.83311 | -120.05367 | 34097 ft | 418 kts | 307° |
| 2026-04-22 01:20 | 34.87380 | -120.10448 | 34100 ft | 418 kts | 307° |
| 2026-04-22 01:20 | 34.91439 | -120.15520 | 34102 ft | 418 kts | 307° |
| 2026-04-22 01:21 | 34.95495 | -120.20592 | 34094 ft | 417 kts | 307° |
| 2026-04-22 01:21 | 34.99536 | -120.25655 | 34099 ft | 416 kts | 306° |
| 2026-04-22 01:22 | 35.03578 | -120.30729 | 34100 ft | 416 kts | 306° |
| 2026-04-22 01:22 | 35.07610 | -120.35793 | 34093 ft | 416 kts | 307° |
| 2026-04-22 01:23 | 35.11832 | -120.40673 | 34107 ft | 418 kts | 309° |
| 2026-04-22 01:23 | 35.16125 | -120.45478 | 34100 ft | 418 kts | 309° |
| 2026-04-22 01:24 | 35.20426 | -120.50298 | 34091 ft | 419 kts | 309° |
| 2026-04-22 01:24 | 35.24709 | -120.55105 | 34097 ft | 418 kts | 309° |
| 2026-04-22 01:25 | 35.28988 | -120.59918 | 34093 ft | 417 kts | 309° |
| 2026-04-22 01:25 | 35.33263 | -120.64732 | 34092 ft | 417 kts | 309° |
| 2026-04-22 01:26 | 35.37537 | -120.69553 | 34091 ft | 417 kts | 309° |
| 2026-04-22 01:26 | 35.41803 | -120.74376 | 34098 ft | 416 kts | 309° |
| 2026-04-22 01:27 | 35.46075 | -120.79210 | 34118 ft | 417 kts | 309° |
| 2026-04-22 01:27 | 35.50550 | -120.83801 | 34116 ft | 421 kts | 314° |
| 2026-04-22 01:28 | 35.55200 | -120.88130 | 34103 ft | 420 kts | 314° |
| 2026-04-22 01:28 | 35.59882 | -120.92475 | 33990 ft | 421 kts | 314° |
| 2026-04-22 01:29 | 35.62211 | -120.94638 | 33598 ft | 417 kts | 314° |
| 2026-04-22 01:29 | 35.64519 | -120.96780 | 33219 ft | 414 kts | 314° |
| 2026-04-22 01:29 | 35.66811 | -120.98910 | 32844 ft | 411 kts | 314° |
| 2026-04-22 01:29 | 35.69097 | -121.01040 | 32501 ft | 411 kts | 314° |
| 2026-04-22 01:30 | 35.71374 | -121.03165 | 32133 ft | 410 kts | 314° |
| 2026-04-22 01:30 | 35.73650 | -121.05290 | 31771 ft | 410 kts | 314° |
| 2026-04-22 01:30 | 35.75925 | -121.07415 | 31445 ft | 411 kts | 314° |
| 2026-04-22 01:30 | 35.78203 | -121.09544 | 31086 ft | 411 kts | 314° |
| 2026-04-22 01:31 | 35.80483 | -121.11676 | 30746 ft | 411 kts | 314° |
| 2026-04-22 01:31 | 35.82740 | -121.13788 | 30433 ft | 412 kts | 314° |
| 2026-04-22 01:31 | 35.85020 | -121.15924 | 30074 ft | 412 kts | 314° |
| 2026-04-22 01:31 | 35.87304 | -121.18064 | 29686 ft | 412 kts | 314° |
| 2026-04-22 01:32 | 35.89592 | -121.20209 | 29308 ft | 412 kts | 314° |
| 2026-04-22 01:32 | 35.91880 | -121.22357 | 28927 ft | 412 kts | 314° |
| 2026-04-22 01:32 | 35.94162 | -121.24500 | 28549 ft | 411 kts | 314° |
| 2026-04-22 01:32 | 35.96435 | -121.26633 | 28185 ft | 408 kts | 314° |
| 2026-04-22 01:33 | 35.98690 | -121.28752 | 27818 ft | 405 kts | 314° |
| 2026-04-22 01:33 | 36.00923 | -121.30854 | 27455 ft | 402 kts | 314° |
| 2026-04-22 01:33 | 36.03138 | -121.32940 | 27099 ft | 399 kts | 314° |
| 2026-04-22 01:33 | 36.05343 | -121.35009 | 26753 ft | 397 kts | 314° |
| 2026-04-22 01:34 | 36.07577 | -121.36948 | 26400 ft | 397 kts | 317° |
| 2026-04-22 01:34 | 36.09894 | -121.38793 | 26057 ft | 396 kts | 318° |
| 2026-04-22 01:34 | 36.12218 | -121.40611 | 25719 ft | 393 kts | 318° |
| 2026-04-22 01:34 | 36.14526 | -121.42411 | 25376 ft | 390 kts | 318° |
| 2026-04-22 01:35 | 36.16820 | -121.44200 | 25058 ft | 388 kts | 318° |
| 2026-04-22 01:35 | 36.19093 | -121.45974 | 24737 ft | 383 kts | 318° |
| 2026-04-22 01:35 | 36.21337 | -121.47727 | 24395 ft | 379 kts | 317° |
| 2026-04-22 01:35 | 36.23566 | -121.49472 | 24077 ft | 378 kts | 317° |
| 2026-04-22 01:36 | 36.25788 | -121.51211 | 23748 ft | 374 kts | 317° |
| 2026-04-22 01:36 | 36.27979 | -121.52927 | 23407 ft | 370 kts | 317° |
| 2026-04-22 01:36 | 36.30156 | -121.54638 | 23040 ft | 371 kts | 317° |
| 2026-04-22 01:36 | 36.32333 | -121.56347 | 22638 ft | 370 kts | 317° |
| 2026-04-22 01:37 | 36.34473 | -121.58029 | 22274 ft | 369 kts | 318° |
| 2026-04-22 01:37 | 36.36634 | -121.59728 | 21903 ft | 367 kts | 318° |
| 2026-04-22 01:37 | 36.38788 | -121.61424 | 21538 ft | 366 kts | 318° |
| 2026-04-22 01:37 | 36.40935 | -121.63112 | 21180 ft | 364 kts | 319° |
| 2026-04-22 01:38 | 36.43071 | -121.64793 | 20831 ft | 363 kts | 319° |
| 2026-04-22 01:38 | 36.45203 | -121.66474 | 20486 ft | 363 kts | 319° |
| 2026-04-22 01:38 | 36.47334 | -121.68155 | 20109 ft | 363 kts | 319° |
| 2026-04-22 01:38 | 36.49471 | -121.69841 | 19710 ft | 362 kts | 320° |
| 2026-04-22 01:39 | 36.51599 | -121.71523 | 19323 ft | 362 kts | 320° |
| 2026-04-22 01:39 | 36.53728 | -121.73204 | 18948 ft | 363 kts | 320° |
| 2026-04-22 01:39 | 36.55861 | -121.74890 | 18569 ft | 363 kts | 321° |
| 2026-04-22 01:39 | 36.57997 | -121.76581 | 18145 ft | 364 kts | 321° |
| 2026-04-22 01:40 | 36.60140 | -121.78277 | 17718 ft | 364 kts | 321° |
| 2026-04-22 01:40 | 36.62280 | -121.79972 | 17284 ft | 364 kts | 322° |
| 2026-04-22 01:40 | 36.64390 | -121.81643 | 16861 ft | 363 kts | 322° |
| 2026-04-22 01:40 | 36.66524 | -121.83334 | 16443 ft | 363 kts | 322° |
| 2026-04-22 01:41 | 36.68655 | -121.85024 | 16025 ft | 363 kts | 322° |
| 2026-04-22 01:41 | 36.70785 | -121.86716 | 15611 ft | 362 kts | 323° |
| 2026-04-22 01:41 | 36.72965 | -121.88309 | 15201 ft | 365 kts | 328° |
| 2026-04-22 01:41 | 36.75313 | -121.89558 | 14708 ft | 370 kts | 336° |
| 2026-04-22 01:42 | 36.77809 | -121.90445 | 14093 ft | 375 kts | 342° |
| 2026-04-22 01:42 | 36.80364 | -121.91173 | 13443 ft | 377 kts | 343° |
| 2026-04-22 01:42 | 36.82935 | -121.91873 | 12768 ft | 379 kts | 344° |
| 2026-04-22 01:42 | 36.85523 | -121.92578 | 12109 ft | 380 kts | 344° |
| 2026-04-22 01:43 | 36.88115 | -121.93291 | 11460 ft | 380 kts | 344° |
| 2026-04-22 01:43 | 36.90695 | -121.94008 | 10830 ft | 380 kts | 344° |
| 2026-04-22 01:43 | 36.93293 | -121.94734 | 10268 ft | 378 kts | 344° |
| 2026-04-22 01:43 | 36.95807 | -121.95525 | 10018 ft | 366 kts | 341° |
| 2026-04-22 01:44 | 36.98168 | -121.96413 | 10009 ft | 353 kts | 340° |
| 2026-04-22 01:44 | 37.00508 | -121.97324 | 10004 ft | 352 kts | 339° |
| 2026-04-22 01:44 | 37.02824 | -121.98231 | 9844 ft | 343 kts | 339° |
| 2026-04-22 01:44 | 37.05070 | -121.99110 | 9649 ft | 333 kts | 339° |
| 2026-04-22 01:45 | 37.07253 | -121.99963 | 9439 ft | 323 kts | 339° |
| 2026-04-22 01:45 | 37.09361 | -122.00788 | 9248 ft | 312 kts | 339° |
| 2026-04-22 01:45 | 37.11408 | -122.01589 | 9054 ft | 303 kts | 339° |
| 2026-04-22 01:45 | 37.13399 | -122.02369 | 8858 ft | 295 kts | 339° |
| 2026-04-22 01:46 | 37.15308 | -122.03116 | 8662 ft | 287 kts | 339° |
| 2026-04-22 01:46 | 37.17191 | -122.03855 | 8499 ft | 279 kts | 339° |
| 2026-04-22 01:46 | 37.19040 | -122.04581 | 8248 ft | 277 kts | 339° |
| 2026-04-22 01:46 | 37.20880 | -122.05305 | 8023 ft | 276 kts | 339° |
| 2026-04-22 01:47 | 37.22715 | -122.06028 | 7791 ft | 276 kts | 339° |
| 2026-04-22 01:47 | 37.24538 | -122.06741 | 7567 ft | 274 kts | 339° |
| 2026-04-22 01:47 | 37.25750 | -122.07216 | 7417 ft | 273 kts | 339° |
| 2026-04-22 01:47 | 37.27556 | -122.07924 | 7180 ft | 270 kts | 339° |
| 2026-04-22 01:48 | 37.29910 | -122.08850 | 6886 ft | 264 kts | 339° |
| 2026-04-22 01:48 | 37.31084 | -122.09315 | 6729 ft | 261 kts | 338° |
| 2026-04-22 01:48 | 37.32808 | -122.09997 | 6505 ft | 257 kts | 339° |
| 2026-04-22 01:48 | 37.34506 | -122.10667 | 6260 ft | 256 kts | 338° |
| 2026-04-22 01:49 | 37.36209 | -122.11341 | 6047 ft | 256 kts | 338° |
| 2026-04-22 01:49 | 37.37889 | -122.11985 | 5828 ft | 257 kts | 340° |
| 2026-04-22 01:49 | 37.39621 | -122.12590 | 5251 ft | 259 kts | 340° |
| 2026-04-22 01:49 | 37.41345 | -122.13176 | 4811 ft | 253 kts | 340° |
| 2026-04-22 01:50 | 37.43033 | -122.13749 | 4398 ft | 248 kts | 340° |
| 2026-04-22 01:50 | 37.44695 | -122.14317 | 4056 ft | 248 kts | 340° |
| 2026-04-22 01:50 | 37.46367 | -122.14881 | 3734 ft | 248 kts | 341° |
| 2026-04-22 01:50 | 37.48019 | -122.15424 | 3558 ft | 242 kts | 341° |
| 2026-04-22 01:51 | 37.49628 | -122.15950 | 3367 ft | 235 kts | 341° |
| 2026-04-22 01:51 | 37.51188 | -122.16461 | 3194 ft | 229 kts | 341° |
| 2026-04-22 01:51 | 37.52712 | -122.16979 | 3022 ft | 222 kts | 335° |
| 2026-04-22 01:51 | 37.53924 | -122.18039 | 2826 ft | 209 kts | 301° |
| 2026-04-22 01:52 | 37.54621 | -122.19569 | 2737 ft | 197 kts | 295° |
| 2026-04-22 01:52 | 37.55243 | -122.21038 | 2596 ft | 181 kts | 295° |
| 2026-04-22 01:52 | 37.55813 | -122.22396 | 2397 ft | 169 kts | 294° |
| 2026-04-22 01:52 | 37.56343 | -122.23668 | 2145 ft | 157 kts | 293° |
| 2026-04-22 01:53 | 37.56837 | -122.24861 | 1943 ft | 148 kts | 293° |
| 2026-04-22 01:53 | 37.57314 | -122.26017 | 1810 ft | 152 kts | 293° |
| 2026-04-22 01:53 | 37.57807 | -122.27201 | 1653 ft | 152 kts | 293° |
| 2026-04-22 01:53 | 37.58298 | -122.28383 | 1451 ft | 152 kts | 293° |
| 2026-04-22 01:54 | 37.58784 | -122.29565 | 1172 ft | 151 kts | 295° |
| 2026-04-22 01:54 | 37.59284 | -122.30728 | 969 ft | 151 kts | 296° |
| 2026-04-22 01:54 | 37.59774 | -122.31896 | 814 ft | 150 kts | 296° |
| 2026-04-22 01:54 | 37.60260 | -122.33061 | 569 ft | 150 kts | 295° |
| 2026-04-22 01:55 | 37.60743 | -122.34226 | 372 ft | 149 kts | 294° |
| 2026-04-22 01:55 | 37.61211 | -122.35371 | 175 ft | 149 kts | 295° |
| 2026-04-22 01:55 | 37.61697 | -122.36520 | 30 ft | 143 kts | 295° |
| 2026-04-22 01:55 | 37.62088 | -122.37471 | 29 ft | 96 kts | 298° |
| 2026-04-22 01:56 | 37.62319 | -122.38014 | 30 ft | 44 kts | 298° |
| 2026-04-22 01:56 | 37.62427 | -122.38261 | 29 ft | 28 kts | 303° |
| 2026-04-22 01:56 | 37.62550 | -122.38365 | 29 ft | 14 kts | 5° |
| 2026-04-22 01:56 | 37.62581 | -122.38287 | 26 ft | 11 kts | 107° |
| 2026-04-22 01:57 | 37.62557 | -122.38190 | 31 ft | 12 kts | 92° |
| 2026-04-22 01:57 | 37.62603 | -122.38114 | 31 ft | 11 kts | 29° |
| 2026-04-22 01:57 | 37.62676 | -122.38048 | 27 ft | 13 kts | 73° |
| 2026-04-22 01:57 | 37.62665 | -122.37991 | 29 ft | 3 kts | 117° |
| 2026-04-22 01:58 | 37.61483 | -122.36019 | 28 ft | 0 kts | 296° |
| 2026-04-22 01:58 | 37.60018 | -122.32474 | 700 ft | 0 kts | 295° |
| 2026-04-22 01:58 | 37.60083 | -122.32632 | 672 ft | 0 kts | 295° |
| 2026-04-22 01:58 | 37.60564 | -122.33781 | 431 ft | 0 kts | 294° |
| 2026-04-22 01:59 | 37.61036 | -122.34949 | 248 ft | 0 kts | 295° |
| 2026-04-22 01:59 | 37.61520 | -122.36105 | 44 ft | 0 kts | 296° |
| 2026-04-22 01:59 | 37.61961 | -122.37169 | 29 ft | 0 kts | 298° |
| 2026-04-22 01:59 | 37.62211 | -122.37760 | 28 ft | 0 kts | 298° |
| 2026-04-22 02:00 | 37.61247 | -122.35459 | 159 ft | 0 kts | 296° |
| 2026-04-22 02:00 | 37.61731 | -122.36600 | 30 ft | 0 kts | 295° |
| 2026-04-22 02:00 | 37.62046 | -122.37371 | 28 ft | 0 kts | 298° |
| 2026-04-22 02:00 | 37.61443 | -122.35927 | 58 ft | 0 kts | 296° |
| 2026-04-22 02:01 | 37.61888 | -122.36988 | 32 ft | 0 kts | 296° |
| 2026-04-22 02:01 | 37.60445 | -122.33500 | 484 ft | 0 kts | 295° |
| 2026-04-22 02:01 | 37.60921 | -122.34668 | 301 ft | 0 kts | 295° |
| 2026-04-22 02:01 | 37.61401 | -122.35826 | 86 ft | 0 kts | 296° |
| 2026-04-22 02:02 | 37.61866 | -122.36934 | 26 ft | 0 kts | 297° |
| 2026-04-22 02:02 | 37.62197 | -122.37729 | 28 ft | 0 kts | 299° |
| 2026-04-22 02:02 | 37.62365 | -122.38122 | 29 ft | 0 kts | 298° |
| 2026-04-22 02:02 | 37.62475 | -122.38329 | 28 ft | 0 kts | 324° |
| 2026-04-22 02:03 | 37.62578 | -122.38344 | 33 ft | 0 kts | 56° |